Time;durP1;ratioP1;P1;durP2;ratioP2;P2;SDS_P1;SDS_P2;PMS_P1;PMS_P2;Temp;Humidity;BMP_temperature;BMP_pressure;BME280_temperature;BME280_humidity;BME280_pressure;Samples;Min_cycle;Max_cycle;Signal;HPM_P1;HPM_P2
2023/12/09 00:01:39;;;;;;;;;;;;;;;-13.97;72.04;101614.81;5025577;28;19929;-73
2023/12/09 00:04:06;;;;;;;;;;;;;;;-13.94;71.47;101606.78;5024814;28;20315;-74
2023/12/09 00:06:32;;;;;;;;;;;;;;;-14.01;71.74;101603.56;5025529;28;19933;-74
2023/12/09 00:08:58;;;;;;;;;;;;;;;-14.03;72.06;101609.84;5022219;28;20020;-74
2023/12/09 00:11:24;;;;;;;;;;;;;;;-14.04;72.06;101614.22;5036152;28;20019;-73
2023/12/09 00:13:51;;;;;;;;;;;;;;;-13.99;72.30;101604.34;5021405;28;20023;-73
2023/12/09 00:16:18;;;;;;;;;;;;;;;-13.94;72.04;101598.03;5004644;28;19984;-74
2023/12/09 00:18:44;;;;;;;;;;;;;;;-13.94;71.67;101604.13;5021921;28;19929;-73
2023/12/09 00:21:11;;;;;;;;;;;;;;;-13.89;71.69;101590.78;5022586;28;20423;-73
2023/12/09 00:23:37;;;;;;;;;;;;;;;-13.87;71.61;101591.56;5022830;28;20316;-74
2023/12/09 00:26:03;;;;;;;;;;;;;;;-13.85;71.75;101580.03;5021937;28;19929;-73
2023/12/09 00:28:29;;;;;;;;;;;;;;;-13.88;71.34;101589.84;5004997;28;19940;-73
2023/12/09 00:30:55;;;;;;;;;;;;;;;-13.88;71.40;101579.31;5020065;28;20032;-70
2023/12/09 00:33:22;;;;;;;;;;;;;;;-13.85;71.66;101585.31;5022198;28;19929;-70
2023/12/09 00:35:48;;;;;;;;;;;;;;;-13.83;71.68;101577.31;4987682;28;19929;-70
2023/12/09 00:38:15;;;;;;;;;;;;;;;-13.83;71.37;101586.09;5019136;28;20460;-70
2023/12/09 00:40:41;;;;;;;;;;;;;;;-13.80;71.19;101573.69;5023265;28;19946;-70
2023/12/09 00:43:07;;;;;;;;;;;;;;;-13.79;71.58;101570.16;5023698;28;19928;-70
2023/12/09 00:45:33;;;;;;;;;;;;;;;-13.72;71.09;101568.94;5022490;28;20027;-70
2023/12/09 00:47:59;;;;;;;;;;;;;;;-13.77;71.13;101574.41;5021566;28;20044;-70
2023/12/09 00:50:25;;;;;;;;;;;;;;;-13.81;71.08;101575.50;5021967;28;19929;-70
2023/12/09 00:52:51;;;;;;;;;;;;;;;-13.86;71.07;101567.81;5021523;28;19929;-71
2023/12/09 00:55:19;;;;;;;;;;;;;;;-13.88;71.33;101569.69;5005259;28;19967;-71
2023/12/09 00:57:45;;;;;;;;;;;;;;;-13.84;71.40;101565.97;5021241;28;19929;-70
2023/12/09 01:00:11;;;;;;;;;;;;;;;-13.82;71.51;101574.63;4987201;28;19933;-72
2023/12/09 01:02:39;;;;;;;;;;;;;;;-13.80;71.12;101560.56;5020512;28;19932;-71
2023/12/09 01:05:05;;;;;;;;;;;;;;;-13.76;71.14;101555.06;5019074;28;20190;-71
2023/12/09 01:07:31;;;;;;;;;;;;;;;-13.75;71.09;101556.78;5020622;28;19936;-71
2023/12/09 01:09:57;;;;;;;;;;;;;;;-13.76;70.93;101556.84;5002719;28;20383;-71
2023/12/09 01:12:24;;;;;;;;;;;;;;;-13.86;70.99;101559.94;5021045;28;19952;-71
2023/12/09 01:14:50;;;;;;;;;;;;;;;-13.81;71.34;101564.97;5004723;28;19945;-71
2023/12/09 01:17:16;;;;;;;;;;;;;;;-13.81;71.75;101546.56;5022962;28;19929;-71
2023/12/09 01:19:42;;;;;;;;;;;;;;;-13.84;71.72;101549.31;5020398;28;20262;-71
2023/12/09 01:22:09;;;;;;;;;;;;;;;-13.88;71.74;101547.75;5021043;28;20377;-72
2023/12/09 01:24:35;;;;;;;;;;;;;;;-13.85;71.49;101535.31;5024979;28;20384;-71
2023/12/09 01:27:01;;;;;;;;;;;;;;;-13.88;71.70;101540.75;5010121;28;19929;-71
2023/12/09 01:29:29;;;;;;;;;;;;;;;-13.89;71.86;101536.41;5025904;28;19943;-70
2023/12/09 01:31:54;;;;;;;;;;;;;;;-13.91;71.64;101543.50;5024135;28;19929;-71
2023/12/09 01:34:20;;;;;;;;;;;;;;;-13.91;71.50;101542.66;5026438;28;20031;-70
2023/12/09 01:36:46;;;;;;;;;;;;;;;-13.90;71.72;101544.34;5023525;28;20375;-71
2023/12/09 01:39:12;;;;;;;;;;;;;;;-13.91;71.51;101542.66;5024591;28;20437;-70
2023/12/09 01:41:38;;;;;;;;;;;;;;;-13.88;71.44;101543.38;5006117;28;19932;-71
2023/12/09 01:44:05;;;;;;;;;;;;;;;-13.85;71.14;101532.69;5027214;28;19935;-71
2023/12/09 01:46:33;;;;;;;;;;;;;;;-13.88;71.17;101529.34;5023911;28;19951;-71
2023/12/09 01:48:59;;;;;;;;;;;;;;;-13.94;71.14;101541.00;5023517;28;19976;-71
2023/12/09 01:51:26;;;;;;;;;;;;;;;-13.89;71.22;101538.16;5023456;28;19928;-71
2023/12/09 01:53:51;;;;;;;;;;;;;;;-13.84;71.39;101538.78;5024572;28;19964;-75
2023/12/09 01:56:17;;;;;;;;;;;;;;;-13.82;71.27;101536.94;5025568;28;19994;-74
2023/12/09 01:58:43;;;;;;;;;;;;;;;-13.80;71.30;101537.75;5026894;28;19933;-74
2023/12/09 02:01:09;;;;;;;;;;;;;;;-13.76;70.85;101538.41;5025083;28;19940;-74
2023/12/09 02:03:37;;;;;;;;;;;;;;;-13.80;70.79;101537.75;5025260;28;19939;-74
2023/12/09 02:06:03;;;;;;;;;;;;;;;-13.83;71.01;101533.47;5021241;28;20020;-74
2023/12/09 02:08:29;;;;;;;;;;;;;;;-13.79;71.11;101528.91;5023046;28;19983;-74
2023/12/09 02:11:02;;;;;;;;;;;;;;;-13.80;71.03;101523.72;5023470;28;20304;-74
2023/12/09 02:13:31;;;;;;;;;;;;;;;-13.88;71.04;101524.97;5021822;28;20026;-74
2023/12/09 02:16:00;;;;;;;;;;;;;;;-13.94;70.89;101521.75;5022228;28;19975;-74
2023/12/09 02:18:29;;;;;;;;;;;;;;;-14.01;71.17;101513.31;5021664;28;21742;-74
2023/12/09 02:20:57;;;;;;;;;;;;;;;-14.00;71.30;101521.13;5020864;28;19936;-75
2023/12/09 02:23:24;;;;;;;;;;;;;;;-14.02;71.22;101514.25;5024707;28;20415;-74
2023/12/09 02:25:54;;;;;;;;;;;;;;;-14.01;71.33;101511.50;5022830;28;19933;-74
2023/12/09 02:28:23;;;;;;;;;;;;;;;-13.98;71.09;101518.41;5022777;28;19955;-74
2023/12/09 02:30:54;;;;;;;;;;;;;;;-14.03;71.14;101508.13;5024396;28;19929;-74
2023/12/09 02:33:20;;;;;;;;;;;;;;;-14.11;71.20;101513.75;5022167;28;19933;-74
2023/12/09 02:35:47;;;;;;;;;;;;;;;-14.13;71.53;101509.47;5022792;28;19929;-74
2023/12/09 02:38:15;;;;;;;;;;;;;;;-14.05;71.70;101509.09;5022770;28;20027;-74
2023/12/09 02:40:42;;;;;;;;;;;;;;;-14.05;71.48;101496.81;5023405;28;19933;-74
2023/12/09 02:43:09;;;;;;;;;;;;;;;-13.98;71.39;101510.53;5022398;28;19929;-74
2023/12/09 02:45:35;;;;;;;;;;;;;;;-14.00;71.55;101504.50;5021404;28;20412;-74
2023/12/09 02:48:01;;;;;;;;;;;;;;;-13.98;71.45;101503.47;5022420;28;19929;-74
2023/12/09 02:50:26;;;;;;;;;;;;;;;-13.99;70.94;101498.31;5024122;28;19932;-74
2023/12/09 02:52:52;;;;;;;;;;;;;;;-13.94;71.24;101504.19;5023905;28;20398;-75
2023/12/09 02:55:18;;;;;;;;;;;;;;;-13.90;70.99;101504.91;5023512;28;19929;-74
2023/12/09 02:57:46;;;;;;;;;;;;;;;-13.89;71.25;101498.72;5023682;28;19983;-74
2023/12/09 03:00:12;;;;;;;;;;;;;;;-13.88;71.33;101503.91;5018234;28;20008;-74
2023/12/09 03:02:38;;;;;;;;;;;;;;;-13.92;71.19;101504.13;5023389;28;19983;-75
2023/12/09 03:05:04;;;;;;;;;;;;;;;-14.02;70.85;101508.97;5024190;28;19933;-74
2023/12/09 03:07:30;;;;;;;;;;;;;;;-14.03;70.90;101502.03;5005605;28;20023;-74
2023/12/09 03:09:56;;;;;;;;;;;;;;;-13.95;71.25;101512.16;5020009;28;20039;-74
2023/12/09 03:12:22;;;;;;;;;;;;;;;-13.87;71.46;101504.75;5023970;28;19929;-74
2023/12/09 03:14:49;;;;;;;;;;;;;;;-13.90;71.43;101503.09;5021376;28;19952;-74
2023/12/09 03:17:15;;;;;;;;;;;;;;;-13.96;71.59;101500.78;4988325;28;20417;-74
2023/12/09 03:19:41;;;;;;;;;;;;;;;-13.97;71.57;101505.22;5022942;28;20028;-74
2023/12/09 03:22:07;;;;;;;;;;;;;;;-14.02;71.66;101501.94;5022856;28;19936;-74
2023/12/09 03:24:33;;;;;;;;;;;;;;;-14.03;72.04;101496.75;5024093;28;20415;-73
2023/12/09 03:26:59;;;;;;;;;;;;;;;-14.02;71.60;101496.66;5021660;28;19929;-71
2023/12/09 03:29:25;;;;;;;;;;;;;;;-13.98;71.18;101500.00;5020631;28;20477;-71
2023/12/09 03:31:52;;;;;;;;;;;;;;;-13.99;71.14;101498.31;5023601;28;19929;-72
2023/12/09 03:34:18;;;;;;;;;;;;;;;-14.00;71.30;101493.97;5020791;28;19929;-71
2023/12/09 03:36:44;;;;;;;;;;;;;;;-13.98;71.24;101494.75;5022428;28;19979;-71
2023/12/09 03:39:11;;;;;;;;;;;;;;;-13.94;71.03;101492.84;5023933;28;20363;-71
2023/12/09 03:41:37;;;;;;;;;;;;;;;-13.89;70.90;101488.19;5020892;28;19933;-71
2023/12/09 03:44:04;;;;;;;;;;;;;;;-13.90;70.71;101489.94;5021831;28;19936;-71
2023/12/09 03:46:30;;;;;;;;;;;;;;;-13.90;70.47;101495.22;5019617;28;20408;-71
2023/12/09 03:48:57;;;;;;;;;;;;;;;-13.89;70.16;101488.19;5020979;28;19929;-71
2023/12/09 03:51:23;;;;;;;;;;;;;;;-13.92;70.16;101485.72;5022321;28;19929;-71
2023/12/09 03:53:49;;;;;;;;;;;;;;;-13.98;70.57;101479.81;5021530;28;19936;-70
2023/12/09 03:56:17;;;;;;;;;;;;;;;-14.02;70.55;101480.88;5023536;28;19929;-71
2023/12/09 03:58:43;;;;;;;;;;;;;;;-14.00;70.70;101478.19;5023508;28;19935;-71
2023/12/09 04:01:09;;;;;;;;;;;;;;;-13.98;70.62;101479.81;5019036;28;19937;-71
2023/12/09 04:03:35;;;;;;;;;;;;;;;-13.99;70.41;101487.78;5023145;28;19933;-70
2023/12/09 04:06:03;;;;;;;;;;;;;;;-14.01;70.26;101482.59;5024415;28;20323;-70
2023/12/09 04:08:29;;;;;;;;;;;;;;;-14.00;70.21;101486.91;5021961;28;19929;-71
2023/12/09 04:10:55;;;;;;;;;;;;;;;-13.94;70.16;101477.06;5020803;28;19935;-71
2023/12/09 04:13:21;;;;;;;;;;;;;;;-14.00;70.27;101479.03;5021444;28;20351;-71
2023/12/09 04:15:47;;;;;;;;;;;;;;;-14.05;70.38;101488.94;5021526;28;19929;-73
2023/12/09 04:18:13;;;;;;;;;;;;;;;-14.05;70.25;101488.06;5022142;28;19929;-73
2023/12/09 04:20:39;;;;;;;;;;;;;;;-14.00;70.69;101491.34;5020968;28;19935;-72
2023/12/09 04:23:07;;;;;;;;;;;;;;;-13.95;70.61;101489.34;5019332;28;20339;-73
2023/12/09 04:25:33;;;;;;;;;;;;;;;-13.92;70.02;101491.81;5023995;28;19944;-72
2023/12/09 04:27:59;;;;;;;;;;;;;;;-13.92;70.30;101490.97;5020851;28;19929;-74
2023/12/09 04:30:25;;;;;;;;;;;;;;;-13.92;70.06;101486.56;4999385;28;19951;-74
2023/12/09 04:32:51;;;;;;;;;;;;;;;-13.89;70.08;101493.44;5023220;28;20392;-74
2023/12/09 04:35:16;;;;;;;;;;;;;;;-13.88;69.38;101489.88;5023136;28;19929;-74
2023/12/09 04:37:43;;;;;;;;;;;;;;;-13.88;69.42;101495.16;5020077;28;19936;-73
2023/12/09 04:40:11;;;;;;;;;;;;;;;-13.88;69.26;101490.75;5025091;28;19947;-70
2023/12/09 04:42:37;;;;;;;;;;;;;;;-13.95;69.11;101494.59;5022156;28;20257;-70
2023/12/09 04:45:04;;;;;;;;;;;;;;;-14.04;69.19;101505.56;4999204;28;20375;-71
2023/12/09 04:47:30;;;;;;;;;;;;;;;-14.08;69.58;101496.97;5026116;28;20418;-71
2023/12/09 04:49:56;;;;;;;;;;;;;;;-14.09;69.63;101505.78;5020602;28;19953;-74
2023/12/09 04:52:23;;;;;;;;;;;;;;;-14.04;69.69;101497.69;5016039;28;19929;-74
2023/12/09 04:54:49;;;;;;;;;;;;;;;-14.05;69.48;101495.94;5027057;28;20188;-74
2023/12/09 04:57:17;;;;;;;;;;;;;;;-14.02;69.94;101508.97;5015574;28;20024;-74
2023/12/09 04:59:44;;;;;;;;;;;;;;;-14.01;69.89;101510.69;5016061;28;19929;-73
2023/12/09 05:02:10;;;;;;;;;;;;;;;-13.97;69.91;101514.88;5018129;28;20384;-74
2023/12/09 05:04:36;;;;;;;;;;;;;;;-13.88;70.01;101511.81;5015123;28;19935;-74
2023/12/09 05:07:03;;;;;;;;;;;;;;;-13.85;69.84;101511.66;5017063;28;20023;-74
2023/12/09 05:09:28;;;;;;;;;;;;;;;-13.87;69.57;101512.63;5014353;28;19987;-74
2023/12/09 05:11:54;;;;;;;;;;;;;;;-13.86;69.84;101516.97;5014930;28;19929;-74
2023/12/09 05:14:22;;;;;;;;;;;;;;;-13.88;69.72;101505.69;5013869;28;20056;-74
2023/12/09 05:16:48;;;;;;;;;;;;;;;-13.90;69.95;101512.78;5017490;28;19929;-74
2023/12/09 05:19:14;;;;;;;;;;;;;;;-13.86;69.96;101509.94;5017412;28;19951;-74
2023/12/09 05:21:40;;;;;;;;;;;;;;;-13.81;69.95;101512.34;5014280;28;20016;-74
2023/12/09 05:24:06;;;;;;;;;;;;;;;-13.91;69.92;101513.72;5025430;28;20812;-74
2023/12/09 05:26:33;;;;;;;;;;;;;;;-13.92;70.03;101517.28;5026310;28;20017;-74
2023/12/09 05:28:59;;;;;;;;;;;;;;;-13.99;69.73;101511.47;5041554;28;19933;-73
2023/12/09 05:31:27;;;;;;;;;;;;;;;-14.00;69.75;101513.22;5017803;28;19928;-73
2023/12/09 05:33:52;;;;;;;;;;;;;;;-13.98;70.33;101514.00;5022801;28;19964;-74
2023/12/09 05:36:18;;;;;;;;;;;;;;;-13.95;70.45;101513.00;5008859;28;19956;-73
2023/12/09 05:38:44;;;;;;;;;;;;;;;-13.91;70.00;101505.81;5025691;28;20490;-74
2023/12/09 05:41:10;;;;;;;;;;;;;;;-13.92;70.03;101512.03;5022957;28;20024;-74
2023/12/09 05:43:36;;;;;;;;;;;;;;;-13.95;69.96;101518.25;5016551;28;20210;-73
2023/12/09 05:46:03;;;;;;;;;;;;;;;-13.95;69.92;101510.38;5024979;28;19929;-74
2023/12/09 05:48:31;;;;;;;;;;;;;;;-13.91;70.06;101517.19;5024861;28;19972;-74
2023/12/09 05:50:57;;;;;;;;;;;;;;;-13.91;69.77;101509.28;5025914;28;19930;-74
2023/12/09 05:53:23;;;;;;;;;;;;;;;-13.91;69.80;101519.81;5026142;28;20419;-73
2023/12/09 05:55:49;;;;;;;;;;;;;;;-13.87;70.12;101518.75;5028012;28;19960;-70
2023/12/09 05:58:15;;;;;;;;;;;;;;;-13.87;70.40;101524.03;5010295;28;19983;-70
2023/12/09 06:00:41;;;;;;;;;;;;;;;-13.92;70.22;101519.91;5023790;28;20008;-73
2023/12/09 06:03:08;;;;;;;;;;;;;;;-13.91;70.56;101521.59;5023908;28;19935;-73
2023/12/09 06:05:35;;;;;;;;;;;;;;;-13.93;70.65;101519.03;5024308;28;19929;-72
2023/12/09 06:08:02;;;;;;;;;;;;;;;-13.92;70.77;101527.81;5024162;28;20392;-73
2023/12/09 06:10:28;;;;;;;;;;;;;;;-13.87;71.19;101524.03;5024151;28;19929;-73
2023/12/09 06:12:53;;;;;;;;;;;;;;;-13.83;71.42;101517.69;5018028;28;19929;-73
2023/12/09 06:15:19;;;;;;;;;;;;;;;-13.84;71.02;101518.63;5019264;28;20526;-73
2023/12/09 06:17:45;;;;;;;;;;;;;;;-13.78;71.09;101516.59;5022897;28;19929;-73
2023/12/09 06:20:11;;;;;;;;;;;;;;;-13.84;70.82;101515.97;4995194;28;19909;-74
2023/12/09 06:22:46;;;;;;;;;;;;;;;-13.87;70.66;101512.63;5023007;28;19929;-75
2023/12/09 06:25:13;;;;;;;;;;;;;;;-13.82;70.47;101515.88;5023403;28;19935;-75
2023/12/09 06:27:39;;;;;;;;;;;;;;;-13.83;70.12;101512.41;5023719;28;20403;-73
2023/12/09 06:30:09;;;;;;;;;;;;;;;-13.86;70.32;101506.44;5024013;28;19929;-73
2023/12/09 06:32:34;;;;;;;;;;;;;;;-13.89;70.26;101515.38;5025230;28;19929;-76
2023/12/09 06:35:01;;;;;;;;;;;;;;;-13.80;70.58;101498.28;5022790;28;20024;-73
2023/12/09 06:37:28;;;;;;;;;;;;;;;-13.73;70.04;101504.09;5007791;28;20281;-72
2023/12/09 06:39:56;;;;;;;;;;;;;;;-13.75;70.09;101496.25;5006808;28;19936;-76
2023/12/09 06:42:22;;;;;;;;;;;;;;;-13.66;70.05;101486.19;5022647;28;19929;-73
2023/12/09 06:44:48;;;;;;;;;;;;;;;-13.66;69.90;101491.47;5006504;28;19928;-73
2023/12/09 06:47:14;;;;;;;;;;;;;;;-13.66;69.21;101494.09;4986826;28;19991;-75
2023/12/09 06:49:40;;;;;;;;;;;;;;;-13.81;69.53;101467.63;5004012;28;19933;-75
2023/12/09 06:52:06;;;;;;;;;;;;;;;-13.66;68.92;101487.06;5025849;28;20363;-75
2023/12/09 06:54:32;;;;;;;;;;;;;;;-13.60;69.38;101485.91;5024713;28;20403;-75
2023/12/09 06:56:59;;;;;;;;;;;;;;;-13.51;69.08;101487.22;4990936;28;19929;-76
2023/12/09 06:59:25;;;;;;;;;;;;;;;-13.59;68.88;101475.28;5022360;28;19979;-76
2023/12/09 07:01:55;;;;;;;;;;;;;;;-13.62;69.25;101472.81;5022699;28;20017;-73
2023/12/09 07:04:21;;;;;;;;;;;;;;;-13.62;69.39;101472.81;5023408;28;20007;-74
2023/12/09 07:06:48;;;;;;;;;;;;;;;-13.54;69.08;101465.41;5005563;28;20404;-75
2023/12/09 07:09:13;;;;;;;;;;;;;;;-13.57;68.84;101465.56;5017910;28;20325;-75
2023/12/09 07:11:39;;;;;;;;;;;;;;;-13.50;69.41;101462.59;5020287;28;19970;-76
2023/12/09 07:14:07;;;;;;;;;;;;;;;-13.43;69.32;101446.41;5000243;28;20430;-75
2023/12/09 07:16:33;;;;;;;;;;;;;;;-13.39;69.27;101455.00;5005810;28;19944;-74
2023/12/09 07:18:59;;;;;;;;;;;;;;;-13.39;69.39;101449.72;5002126;28;19951;-75
2023/12/09 07:21:28;;;;;;;;;;;;;;;-13.35;69.29;101458.31;5001627;28;20297;-75
2023/12/09 07:23:55;;;;;;;;;;;;;;;-13.35;69.54;101453.91;5014326;28;19935;-75
2023/12/09 07:26:21;;;;;;;;;;;;;;;-13.34;69.53;101454.75;5019773;28;20422;-74
2023/12/09 07:28:47;;;;;;;;;;;;;;;-13.37;69.22;101453.13;5022051;28;20400;-75
2023/12/09 07:31:14;;;;;;;;;;;;;;;-13.36;68.97;101453.97;5021633;28;19929;-75
2023/12/09 07:33:40;;;;;;;;;;;;;;;-13.30;68.68;101451.88;5021452;28;19960;-74
2023/12/09 07:36:06;;;;;;;;;;;;;;;-13.23;68.82;101454.22;4989281;28;19929;-75
2023/12/09 07:38:32;;;;;;;;;;;;;;;-13.20;68.40;101446.97;5020451;28;19979;-75
2023/12/09 07:40:58;;;;;;;;;;;;;;;-13.16;68.41;101445.03;5023265;28;20396;-75
2023/12/09 07:43:25;;;;;;;;;;;;;;;-13.12;68.51;101447.44;5022518;28;19960;-74
2023/12/09 07:45:51;;;;;;;;;;;;;;;-13.23;68.05;101441.88;5022018;28;19967;-74
2023/12/09 07:48:19;;;;;;;;;;;;;;;-13.23;68.08;101444.50;5003365;28;20336;-74
2023/12/09 07:50:45;;;;;;;;;;;;;;;-13.29;67.76;101442.22;5000209;28;19935;-74
2023/12/09 07:53:11;;;;;;;;;;;;;;;-13.38;68.56;101446.16;5003808;28;20481;-73
2023/12/09 07:55:37;;;;;;;;;;;;;;;-13.39;68.16;101441.84;5018465;28;20000;-72
2023/12/09 07:58:06;;;;;;;;;;;;;;;-13.41;68.04;101454.22;5003767;28;19929;-72
2023/12/09 08:00:32;;;;;;;;;;;;;;;-13.37;67.79;101454.91;5019468;28;19933;-72
2023/12/09 08:03:01;;;;;;;;;;;;;;;-13.37;67.46;101455.75;5017147;28;20374;-75
2023/12/09 08:05:29;;;;;;;;;;;;;;;-13.43;67.19;101461.34;5022809;28;20396;-74
2023/12/09 08:07:55;;;;;;;;;;;;;;;-13.39;67.54;101452.38;5019916;28;19936;-74
2023/12/09 08:10:20;;;;;;;;;;;;;;;-13.36;67.20;101453.97;5021649;28;20363;-74
2023/12/09 08:12:46;;;;;;;;;;;;;;;-13.40;66.81;101451.50;5022137;28;19929;-74
2023/12/09 08:15:13;;;;;;;;;;;;;;;-13.41;66.80;101447.16;5020130;28;19929;-75
2023/12/09 08:17:39;;;;;;;;;;;;;;;-13.43;67.24;101454.28;5021256;28;19968;-74
2023/12/09 08:20:08;;;;;;;;;;;;;;;-13.34;67.66;101452.97;5020245;28;19967;-73
2023/12/09 08:22:36;;;;;;;;;;;;;;;-13.30;68.01;101445.78;5020083;28;20557;-74
2023/12/09 08:25:03;;;;;;;;;;;;;;;-13.35;67.75;101432.84;5002051;28;19999;-74
2023/12/09 08:27:29;;;;;;;;;;;;;;;-13.32;67.39;101426.56;5004167;28;19929;-74
2023/12/09 08:29:55;;;;;;;;;;;;;;;-13.31;67.28;101433.53;5018449;28;20432;-74
2023/12/09 08:32:21;;;;;;;;;;;;;;;-13.24;67.14;101432.28;5021460;28;20044;-71
2023/12/09 08:34:47;;;;;;;;;;;;;;;-13.13;66.95;101431.72;5023459;28;19933;-71
2023/12/09 08:37:13;;;;;;;;;;;;;;;-13.05;66.49;101429.53;5024146;28;19933;-70
2023/12/09 08:39:41;;;;;;;;;;;;;;;-13.10;65.99;101423.66;5024079;28;19929;-70
2023/12/09 08:42:07;;;;;;;;;;;;;;;-13.15;66.62;101413.38;5025457;28;19936;-70
2023/12/09 08:44:33;;;;;;;;;;;;;;;-13.16;66.27;101418.72;5021951;28;20308;-70
2023/12/09 08:46:59;;;;;;;;;;;;;;;-13.20;66.67;101420.63;5024496;28;19932;-71
2023/12/09 08:49:28;;;;;;;;;;;;;;;-13.15;67.08;101418.63;5024080;28;19936;-70
2023/12/09 08:51:54;;;;;;;;;;;;;;;-13.07;67.76;101410.34;5024885;28;19936;-70
2023/12/09 08:54:20;;;;;;;;;;;;;;;-13.01;67.19;101417.91;5025668;28;19933;-68
2023/12/09 08:56:47;;;;;;;;;;;;;;;-12.89;67.07;101412.91;5024821;28;19980;-71
2023/12/09 08:59:13;;;;;;;;;;;;;;;-12.79;66.85;101408.84;5024509;28;19972;-70
2023/12/09 09:01:39;;;;;;;;;;;;;;;-12.72;66.36;101406.72;5037914;28;19929;-70
2023/12/09 09:04:05;;;;;;;;;;;;;;;-12.71;65.79;101390.00;5007734;28;19999;-70
2023/12/09 09:06:31;;;;;;;;;;;;;;;-12.70;65.79;101392.53;5026393;28;20502;-70
2023/12/09 09:08:57;;;;;;;;;;;;;;;-12.63;65.03;101377.22;5024073;28;19929;-70
2023/12/09 09:11:24;;;;;;;;;;;;;;;-12.61;64.63;101393.78;5023777;28;20503;-70
2023/12/09 09:13:51;;;;;;;;;;;;;;;-12.57;64.39;101395.31;5028077;28;19928;-70
2023/12/09 09:16:17;;;;;;;;;;;;;;;-12.51;64.33;101404.69;5022642;28;19936;-70
2023/12/09 09:18:43;;;;;;;;;;;;;;;-12.47;64.13;101400.97;4985875;28;20319;-70
2023/12/09 09:21:09;;;;;;;;;;;;;;;-12.57;63.87;101397.94;5024577;28;19929;-70
2023/12/09 09:23:35;;;;;;;;;;;;;;;-12.60;63.77;101384.94;5026507;28;19940;-71
2023/12/09 09:26:01;;;;;;;;;;;;;;;-12.69;63.79;101377.56;5023943;28;19929;-70
2023/12/09 09:28:27;;;;;;;;;;;;;;;-12.85;63.91;101374.91;5020612;28;19983;-71
2023/12/09 09:30:55;;;;;;;;;;;;;;;-12.86;64.53;101376.72;5023673;28;19933;-72
2023/12/09 09:33:21;;;;;;;;;;;;;;;-12.84;64.09;101374.84;5026846;28;19929;-71
2023/12/09 09:35:51;;;;;;;;;;;;;;;-12.97;64.09;101371.19;5007505;28;19929;-71
2023/12/09 09:38:17;;;;;;;;;;;;;;;-12.97;64.49;101364.09;4999326;28;20024;-70
2023/12/09 09:40:43;;;;;;;;;;;;;;;-12.93;64.67;101375.34;5002835;28;20032;-72
2023/12/09 09:43:14;;;;;;;;;;;;;;;-13.06;64.82;101369.03;5005872;28;19936;-71
2023/12/09 09:45:40;;;;;;;;;;;;;;;-13.02;65.13;101374.06;5021821;28;20043;-71
2023/12/09 09:48:10;;;;;;;;;;;;;;;-12.83;65.09;101373.91;5021911;28;19929;-71
2023/12/09 09:50:40;;;;;;;;;;;;;;;-12.79;65.07;101366.69;5025113;28;20340;-72
2023/12/09 09:53:07;;;;;;;;;;;;;;;-12.60;64.73;101353.31;5026425;28;19956;-72
2023/12/09 09:55:35;;;;;;;;;;;;;;;-12.49;64.30;101355.34;5007315;28;19929;-72
2023/12/09 09:58:01;;;;;;;;;;;;;;;-12.47;64.00;101355.28;5042624;28;20359;-72
2023/12/09 10:00:28;;;;;;;;;;;;;;;-12.44;63.47;101358.59;5005589;28;20404;-72
2023/12/09 10:02:54;;;;;;;;;;;;;;;-12.55;63.04;101363.63;5018986;28;20026;-72
2023/12/09 10:05:21;;;;;;;;;;;;;;;-12.50;63.14;101363.38;5024320;28;20187;-70
2023/12/09 10:07:48;;;;;;;;;;;;;;;-12.54;63.04;101363.53;5024503;28;19983;-72
2023/12/09 10:10:16;;;;;;;;;;;;;;;-12.58;63.39;101371.69;5023008;28;19928;-72
2023/12/09 10:12:42;;;;;;;;;;;;;;;-12.57;63.31;101370.75;5019337;28;19936;-72
2023/12/09 10:15:09;;;;;;;;;;;;;;;-12.66;63.67;101364.22;5005385;28;19933;-71
2023/12/09 10:17:35;;;;;;;;;;;;;;;-12.74;63.83;101364.66;5008845;28;20039;-71
2023/12/09 10:20:05;;;;;;;;;;;;;;;-12.83;64.10;101371.28;5023422;28;19929;-72
2023/12/09 10:22:34;;;;;;;;;;;;;;;-12.83;64.29;101354.59;5007843;28;19979;-72
2023/12/09 10:25:00;;;;;;;;;;;;;;;-12.83;64.31;101342.28;5024360;28;20331;-72
2023/12/09 10:27:26;;;;;;;;;;;;;;;-12.90;64.45;101335.63;5008351;28;19928;-72
2023/12/09 10:29:52;;;;;;;;;;;;;;;-13.07;64.67;101343.63;5023299;28;19968;-71
2023/12/09 10:32:19;;;;;;;;;;;;;;;-13.17;65.26;101330.97;5021079;28;20432;-72
2023/12/09 10:34:46;;;;;;;;;;;;;;;-13.03;65.20;101342.50;5023562;28;19929;-72
2023/12/09 10:37:12;;;;;;;;;;;;;;;-13.13;65.01;101339.53;5024137;28;19929;-72
2023/12/09 10:39:43;;;;;;;;;;;;;;;-13.14;65.37;101329.94;5019230;28;20454;-72
2023/12/09 10:42:09;;;;;;;;;;;;;;;-13.14;65.51;101332.56;5021299;28;19929;-71
2023/12/09 10:44:35;;;;;;;;;;;;;;;-13.04;65.90;101320.59;5002771;28;20002;-71
2023/12/09 10:47:01;;;;;;;;;;;;;;;-12.91;65.85;101325.22;5023050;28;19935;-73
2023/12/09 10:49:27;;;;;;;;;;;;;;;-12.90;65.28;101332.19;5023491;28;19929;-72
2023/12/09 10:51:52;;;;;;;;;;;;;;;-12.91;65.35;101326.03;5020462;28;19983;-72
2023/12/09 10:54:19;;;;;;;;;;;;;;;-12.94;65.35;101318.31;5021758;28;19952;-72
2023/12/09 10:56:46;;;;;;;;;;;;;;;-12.87;65.64;101317.06;5020983;28;19929;-71
2023/12/09 10:59:13;;;;;;;;;;;;;;;-12.75;65.49;101320.78;5005038;28;19928;-72
2023/12/09 11:01:39;;;;;;;;;;;;;;;-12.65;65.39;101315.84;5022726;28;19961;-71
2023/12/09 11:04:05;;;;;;;;;;;;;;;-12.73;64.81;101313.63;5024810;28;20031;-72
2023/12/09 11:06:36;;;;;;;;;;;;;;;-12.78;64.75;101312.19;5022010;28;19936;-72
2023/12/09 11:09:05;;;;;;;;;;;;;;;-12.86;64.97;101316.13;5002276;28;19929;-71
2023/12/09 11:11:31;;;;;;;;;;;;;;;-12.88;65.40;101314.50;5000949;28;20281;-72
2023/12/09 11:13:59;;;;;;;;;;;;;;;-12.86;65.18;101309.97;4988345;28;19949;-72
2023/12/09 11:16:26;;;;;;;;;;;;;;;-12.93;65.19;101300.75;5021761;28;20040;-73
2023/12/09 11:18:53;;;;;;;;;;;;;;;-13.03;65.06;101303.88;5022886;28;19933;-72
2023/12/09 11:21:19;;;;;;;;;;;;;;;-12.96;65.74;101296.47;5022721;28;19929;-72
2023/12/09 11:23:50;;;;;;;;;;;;;;;-12.91;65.49;101304.13;5022258;28;19956;-72
2023/12/09 11:26:16;;;;;;;;;;;;;;;-12.87;65.28;101303.03;5025026;28;19929;-72
2023/12/09 11:28:56;;;;;;;;;;;;;;;-12.90;65.56;101305.84;5001848;28;19972;-72
2023/12/09 11:31:30;;;;;;;;;;;;;;;-12.85;65.51;101288.84;5016527;28;19933;-72
2023/12/09 11:33:56;;;;;;;;;;;;;;;-12.82;65.45;101287.78;5017320;28;19936;-72
2023/12/09 11:36:23;;;;;;;;;;;;;;;-12.89;65.69;101294.34;5026554;28;20423;-73
2023/12/09 11:38:50;;;;;;;;;;;;;;;-12.93;66.05;101283.13;5023011;28;20019;-72
2023/12/09 11:41:16;;;;;;;;;;;;;;;-12.94;65.68;101293.78;5020394;28;19975;-72
2023/12/09 11:43:42;;;;;;;;;;;;;;;-13.01;65.87;101294.09;5022561;28;19936;-72
2023/12/09 11:46:09;;;;;;;;;;;;;;;-12.95;66.32;101300.81;5005282;28;19936;-72
2023/12/09 11:48:36;;;;;;;;;;;;;;;-12.84;66.52;101297.56;4989067;28;19933;-72
2023/12/09 11:51:02;;;;;;;;;;;;;;;-12.83;66.67;101299.28;5022862;28;20015;-72
2023/12/09 11:53:29;;;;;;;;;;;;;;;-12.78;66.65;101296.38;5019788;28;20316;-72
2023/12/09 11:55:55;;;;;;;;;;;;;;;-12.85;66.18;101302.00;5018835;28;19935;-72
2023/12/09 11:58:21;;;;;;;;;;;;;;;-12.90;66.89;101305.84;5017028;28;19952;-72
2023/12/09 12:00:47;;;;;;;;;;;;;;;-12.93;66.70;101287.56;5021025;28;20386;-72
2023/12/09 12:03:13;;;;;;;;;;;;;;;-12.96;66.59;101296.47;5020091;28;20410;-72
2023/12/09 12:05:40;;;;;;;;;;;;;;;-12.91;66.85;101301.50;5004512;28;20499;-72
2023/12/09 12:08:07;;;;;;;;;;;;;;;-12.90;67.05;101293.50;5019272;28;20035;-72
2023/12/09 12:10:33;;;;;;;;;;;;;;;-12.93;67.40;101285.75;5019703;28;20482;-72
2023/12/09 12:13:00;;;;;;;;;;;;;;;-12.82;67.50;101277.25;5020130;28;19936;-71
2023/12/09 12:15:26;;;;;;;;;;;;;;;-12.81;67.35;101284.22;5022355;28;19929;-72
2023/12/09 12:17:54;;;;;;;;;;;;;;;-12.93;67.17;101277.88;5017178;28;19930;-72
2023/12/09 12:20:20;;;;;;;;;;;;;;;-12.98;67.75;101286.00;5005589;28;19968;-72
2023/12/09 12:22:48;;;;;;;;;;;;;;;-12.97;67.70;101268.44;5016272;28;19964;-72
2023/12/09 12:25:14;;;;;;;;;;;;;;;-12.92;67.53;101276.94;5023581;28;19976;-73